Leoberto Leal, Brazil
Current Conditions -  °F | °C
As of 1:00 AM on Tuesday 23 Dec 2014 (Local Time) from SBFL Reporting Station
Broken Clouds Broken Clouds  
Wind Chill: 72°   Ceiling: 8000
Heat Index: 72°   Visibility: 6mi
Dew Point: 63°   Wind: 13mph
Humidity: 73%   Direction: 210°SSW
Pressure: 30.03"   Gusts: NA
Location:  27.51°S, 49.29°W
Report Text: SBFL 230300Z 21011KT 9999 SCT020 BKN080 22/17 Q1017
Loading
Personal Weather Stations






























Interactive Weather Map New forecast layout! Learn more

10-Day Weather Forecast

Advertisements
Track Severe Weather on mobile